sensor_id;sensor_type;location;lat;lon;timestamp;P1;durP1;ratioP1;P2;durP2;ratioP2
10098;SDS011;5089;42.656;23.374;2022-10-15T06:26:02;0.77;;;0.77;;
10098;SDS011;5089;42.656;23.374;2022-10-15T06:28:29;0.80;;;0.80;;
10098;SDS011;5089;42.656;23.374;2022-10-15T06:30:56;0.70;;;0.70;;
10098;SDS011;5089;42.656;23.374;2022-10-15T06:33:24;0.60;;;0.60;;
10098;SDS011;5089;42.656;23.374;2022-10-15T06:35:51;0.70;;;0.70;;
10098;SDS011;5089;42.656;23.374;2022-10-15T06:38:18;0.67;;;0.67;;
10098;SDS011;5089;42.656;23.374;2022-10-15T06:40:44;0.60;;;0.60;;
10098;SDS011;5089;42.656;23.374;2022-10-15T06:43:12;0.60;;;0.60;;
10098;SDS011;5089;42.656;23.374;2022-10-15T06:45:40;0.70;;;0.70;;
10098;SDS011;5089;42.656;23.374;2022-10-15T06:48:08;0.70;;;0.70;;
10098;SDS011;5089;42.656;23.374;2022-10-15T06:50:36;0.67;;;0.67;;
10098;SDS011;5089;42.656;23.374;2022-10-15T06:53:04;0.93;;;0.93;;
10098;SDS011;5089;42.656;23.374;2022-10-15T06:55:31;0.80;;;0.80;;
10098;SDS011;5089;42.656;23.374;2022-10-15T06:57:58;1.00;;;1.00;;
10098;SDS011;5089;42.656;23.374;2022-10-15T07:00:26;0.80;;;0.80;;
10098;SDS011;5089;42.656;23.374;2022-10-15T07:02:53;0.70;;;0.70;;
10098;SDS011;5089;42.656;23.374;2022-10-15T07:05:20;0.90;;;0.90;;
10098;SDS011;5089;42.656;23.374;2022-10-15T07:07:50;0.70;;;0.70;;
10098;SDS011;5089;42.656;23.374;2022-10-15T07:10:17;0.77;;;0.77;;
10098;SDS011;5089;42.656;23.374;2022-10-15T07:12:44;0.70;;;0.70;;
10098;SDS011;5089;42.656;23.374;2022-10-15T07:15:12;0.90;;;0.90;;
10098;SDS011;5089;42.656;23.374;2022-10-15T07:17:42;0.80;;;0.80;;
10098;SDS011;5089;42.656;23.374;2022-10-15T07:20:11;0.70;;;0.70;;
10098;SDS011;5089;42.656;23.374;2022-10-15T07:22:38;0.80;;;0.80;;
10098;SDS011;5089;42.656;23.374;2022-10-15T07:25:05;0.80;;;0.80;;
10098;SDS011;5089;42.656;23.374;2022-10-15T07:27:34;0.93;;;0.93;;
10098;SDS011;5089;42.656;23.374;2022-10-15T07:30:00;0.90;;;0.90;;
10098;SDS011;5089;42.656;23.374;2022-10-15T07:32:27;1.17;;;1.17;;
10098;SDS011;5089;42.656;23.374;2022-10-15T07:34:58;1.00;;;1.00;;
10098;SDS011;5089;42.656;23.374;2022-10-15T07:37:25;1.00;;;1.00;;
10098;SDS011;5089;42.656;23.374;2022-10-15T07:39:52;0.80;;;0.80;;
10098;SDS011;5089;42.656;23.374;2022-10-15T07:42:20;1.03;;;1.03;;
10098;SDS011;5089;42.656;23.374;2022-10-15T07:44:47;0.90;;;0.90;;
10098;SDS011;5089;42.656;23.374;2022-10-15T07:47:14;0.80;;;0.80;;
10098;SDS011;5089;42.656;23.374;2022-10-15T07:49:41;0.90;;;0.90;;
10098;SDS011;5089;42.656;23.374;2022-10-15T07:52:09;1.10;;;1.10;;
10098;SDS011;5089;42.656;23.374;2022-10-15T07:54:36;1.10;;;1.10;;
10098;SDS011;5089;42.656;23.374;2022-10-15T07:57:03;1.10;;;1.10;;
10098;SDS011;5089;42.656;23.374;2022-10-15T07:59:31;0.90;;;0.90;;
10098;SDS011;5089;42.656;23.374;2022-10-15T08:01:58;1.03;;;1.03;;
10098;SDS011;5089;42.656;23.374;2022-10-15T08:04:24;1.00;;;1.00;;
10098;SDS011;5089;42.656;23.374;2022-10-15T08:06:51;0.90;;;0.90;;
10098;SDS011;5089;42.656;23.374;2022-10-15T08:09:19;0.90;;;0.90;;
10098;SDS011;5089;42.656;23.374;2022-10-15T08:11:46;0.77;;;0.77;;
10098;SDS011;5089;42.656;23.374;2022-10-15T08:14:13;1.00;;;1.00;;
10098;SDS011;5089;42.656;23.374;2022-10-15T08:16:40;1.07;;;1.07;;
10098;SDS011;5089;42.656;23.374;2022-10-15T08:19:07;1.00;;;1.00;;
10098;SDS011;5089;42.656;23.374;2022-10-15T08:21:33;0.80;;;0.80;;
10098;SDS011;5089;42.656;23.374;2022-10-15T08:24:00;1.00;;;1.00;;
10098;SDS011;5089;42.656;23.374;2022-10-15T08:26:28;1.00;;;1.00;;
10098;SDS011;5089;42.656;23.374;2022-10-15T08:28:55;1.30;;;1.30;;
10098;SDS011;5089;42.656;23.374;2022-10-15T08:31:22;1.00;;;1.00;;
10098;SDS011;5089;42.656;23.374;2022-10-15T08:33:49;1.13;;;1.07;;
10098;SDS011;5089;42.656;23.374;2022-10-15T08:36:16;1.23;;;1.13;;
10098;SDS011;5089;42.656;23.374;2022-10-15T08:38:42;1.20;;;1.10;;
10098;SDS011;5089;42.656;23.374;2022-10-15T08:41:14;4.80;;;1.80;;
10098;SDS011;5089;42.656;23.374;2022-10-15T08:43:50;5.30;;;1.80;;
10098;SDS011;5089;42.656;23.374;2022-10-15T08:46:18;3.80;;;1.60;;
10098;SDS011;5089;42.656;23.374;2022-10-15T08:48:50;5.47;;;1.93;;
10098;SDS011;5089;42.656;23.374;2022-10-15T08:51:19;4.50;;;1.73;;
10098;SDS011;5089;42.656;23.374;2022-10-15T08:53:48;6.20;;;2.10;;
10098;SDS011;5089;42.656;23.374;2022-10-15T08:56:20;5.83;;;1.83;;
10098;SDS011;5089;42.656;23.374;2022-10-15T08:58:52;6.90;;;2.00;;
10098;SDS011;5089;42.656;23.374;2022-10-15T09:01:25;6.73;;;1.93;;
10098;SDS011;5089;42.656;23.374;2022-10-15T09:04:00;9.57;;;2.60;;
10098;SDS011;5089;42.656;23.374;2022-10-15T09:06:39;8.20;;;2.30;;
10098;SDS011;5089;42.656;23.374;2022-10-15T09:09:07;6.77;;;1.87;;
10098;SDS011;5089;42.656;23.374;2022-10-15T09:11:47;7.17;;;1.97;;
10098;SDS011;5089;42.656;23.374;2022-10-15T09:14:25;8.57;;;2.23;;
10098;SDS011;5089;42.656;23.374;2022-10-15T09:16:55;9.27;;;2.30;;
10098;SDS011;5089;42.656;23.374;2022-10-15T09:19:28;8.43;;;2.10;;
10098;SDS011;5089;42.656;23.374;2022-10-15T09:21:56;10.67;;;2.50;;
10098;SDS011;5089;42.656;23.374;2022-10-15T09:24:27;9.53;;;2.30;;
10098;SDS011;5089;42.656;23.374;2022-10-15T09:26:59;8.90;;;2.10;;
10098;SDS011;5089;42.656;23.374;2022-10-15T09:29:36;8.50;;;1.90;;
10098;SDS011;5089;42.656;23.374;2022-10-15T09:32:11;8.30;;;2.03;;
10098;SDS011;5089;42.656;23.374;2022-10-15T09:34:43;9.47;;;2.20;;
10098;SDS011;5089;42.656;23.374;2022-10-15T09:37:17;12.13;;;2.50;;
10098;SDS011;5089;42.656;23.374;2022-10-15T09:42:52;12.17;;;2.60;;
10098;SDS011;5089;42.656;23.374;2022-10-15T09:45:24;22.53;;;3.83;;
10098;SDS011;5089;42.656;23.374;2022-10-15T09:47:51;12.87;;;2.40;;
10098;SDS011;5089;42.656;23.374;2022-10-15T09:50:26;17.13;;;2.93;;
10098;SDS011;5089;42.656;23.374;2022-10-15T09:52:59;17.23;;;2.97;;
10098;SDS011;5089;42.656;23.374;2022-10-15T09:55:34;18.07;;;3.00;;
10098;SDS011;5089;42.656;23.374;2022-10-15T09:58:07;14.33;;;2.50;;
10098;SDS011;5089;42.656;23.374;2022-10-15T10:00:55;14.87;;;2.53;;
10098;SDS011;5089;42.656;23.374;2022-10-15T10:03:26;12.17;;;2.17;;
10098;SDS011;5089;42.656;23.374;2022-10-15T10:05:58;15.77;;;2.70;;
10098;SDS011;5089;42.656;23.374;2022-10-15T10:08:26;13.60;;;2.50;;
10098;SDS011;5089;42.656;23.374;2022-10-15T10:10:58;11.80;;;2.10;;
10098;SDS011;5089;42.656;23.374;2022-10-15T10:13:27;11.53;;;2.20;;
10098;SDS011;5089;42.656;23.374;2022-10-15T10:16:02;13.83;;;2.43;;
10098;SDS011;5089;42.656;23.374;2022-10-15T10:18:30;12.50;;;2.27;;
10098;SDS011;5089;42.656;23.374;2022-10-15T10:20:58;10.93;;;2.03;;
10098;SDS011;5089;42.656;23.374;2022-10-15T10:23:28;13.10;;;2.37;;
10098;SDS011;5089;42.656;23.374;2022-10-15T10:25:58;12.77;;;2.30;;
10098;SDS011;5089;42.656;23.374;2022-10-15T10:28:27;13.07;;;2.40;;
10098;SDS011;5089;42.656;23.374;2022-10-15T10:31:01;11.40;;;2.10;;
10098;SDS011;5089;42.656;23.374;2022-10-15T10:33:31;11.70;;;2.13;;
10098;SDS011;5089;42.656;23.374;2022-10-15T10:36:01;13.80;;;2.50;;
10098;SDS011;5089;42.656;23.374;2022-10-15T10:38:29;11.17;;;2.03;;
10098;SDS011;5089;42.656;23.374;2022-10-15T10:40:58;11.80;;;2.13;;
10098;SDS011;5089;42.656;23.374;2022-10-15T10:43:31;12.90;;;2.33;;
10098;SDS011;5089;42.656;23.374;2022-10-15T10:46:01;14.90;;;2.63;;
10098;SDS011;5089;42.656;23.374;2022-10-15T10:48:37;16.77;;;2.80;;
10098;SDS011;5089;42.656;23.374;2022-10-15T10:51:10;14.47;;;2.47;;
10098;SDS011;5089;42.656;23.374;2022-10-15T10:56:25;11.10;;;2.10;;
10098;SDS011;5089;42.656;23.374;2022-10-15T10:58:56;12.03;;;2.10;;
10098;SDS011;5089;42.656;23.374;2022-10-15T11:01:26;10.90;;;1.97;;
10098;SDS011;5089;42.656;23.374;2022-10-15T11:03:54;13.60;;;2.43;;
10098;SDS011;5089;42.656;23.374;2022-10-15T11:06:31;9.70;;;1.80;;
10098;SDS011;5089;42.656;23.374;2022-10-15T11:09:21;11.97;;;2.13;;
10098;SDS011;5089;42.656;23.374;2022-10-15T11:12:03;12.07;;;2.30;;
10098;SDS011;5089;42.656;23.374;2022-10-15T11:14:39;12.40;;;2.30;;
10098;SDS011;5089;42.656;23.374;2022-10-15T11:17:21;12.00;;;2.10;;
10098;SDS011;5089;42.656;23.374;2022-10-15T11:19:56;12.87;;;2.30;;
10098;SDS011;5089;42.656;23.374;2022-10-15T11:22:38;9.77;;;1.87;;
10098;SDS011;5089;42.656;23.374;2022-10-15T11:25:16;10.53;;;1.90;;
10098;SDS011;5089;42.656;23.374;2022-10-15T11:28:04;10.57;;;1.90;;
10098;SDS011;5089;42.656;23.374;2022-10-15T11:30:50;13.00;;;2.30;;
10098;SDS011;5089;42.656;23.374;2022-10-15T11:33:28;10.10;;;1.87;;
10098;SDS011;5089;42.656;23.374;2022-10-15T11:36:29;14.53;;;2.50;;
10098;SDS011;5089;42.656;23.374;2022-10-15T11:39:12;12.00;;;2.13;;
10098;SDS011;5089;42.656;23.374;2022-10-15T11:41:58;12.20;;;2.17;;
10098;SDS011;5089;42.656;23.374;2022-10-15T11:44:36;11.93;;;2.07;;
10098;SDS011;5089;42.656;23.374;2022-10-15T11:47:17;11.67;;;2.00;;
10098;SDS011;5089;42.656;23.374;2022-10-15T11:49:54;10.73;;;2.00;;
10098;SDS011;5089;42.656;23.374;2022-10-15T11:52:37;12.60;;;2.23;;
10098;SDS011;5089;42.656;23.374;2022-10-15T11:55:16;12.13;;;2.17;;
10098;SDS011;5089;42.656;23.374;2022-10-15T12:02:04;19.37;;;3.33;;
10098;SDS011;5089;42.656;23.374;2022-10-15T12:04:37;10.13;;;2.17;;
10098;SDS011;5089;42.656;23.374;2022-10-15T12:07:10;9.47;;;2.13;;
10098;SDS011;5089;42.656;23.374;2022-10-15T12:09:42;8.67;;;1.97;;
10098;SDS011;5089;42.656;23.374;2022-10-15T12:12:16;14.20;;;2.97;;
10098;SDS011;5089;42.656;23.374;2022-10-15T12:14:52;9.47;;;2.07;;
10098;SDS011;5089;42.656;23.374;2022-10-15T12:17:35;14.17;;;3.03;;
10098;SDS011;5089;42.656;23.374;2022-10-15T12:20:11;13.07;;;2.80;;
10098;SDS011;5089;42.656;23.374;2022-10-15T12:22:53;12.03;;;2.57;;
10098;SDS011;5089;42.656;23.374;2022-10-15T12:28:12;17.10;;;3.50;;
10098;SDS011;5089;42.656;23.374;2022-10-15T12:30:42;12.07;;;2.57;;
10098;SDS011;5089;42.656;23.374;2022-10-15T12:33:25;12.53;;;2.60;;
10098;SDS011;5089;42.656;23.374;2022-10-15T12:35:58;12.20;;;2.53;;
10098;SDS011;5089;42.656;23.374;2022-10-15T12:38:27;12.67;;;2.60;;
10098;SDS011;5089;42.656;23.374;2022-10-15T12:40:57;10.77;;;2.37;;
10098;SDS011;5089;42.656;23.374;2022-10-15T12:43:26;10.80;;;2.40;;
10098;SDS011;5089;42.656;23.374;2022-10-15T12:45:55;14.10;;;2.90;;
10098;SDS011;5089;42.656;23.374;2022-10-15T12:48:31;13.67;;;2.77;;
10098;SDS011;5089;42.656;23.374;2022-10-15T12:53:56;10.97;;;2.40;;
10098;SDS011;5089;42.656;23.374;2022-10-15T12:56:33;10.73;;;2.30;;
10098;SDS011;5089;42.656;23.374;2022-10-15T12:59:02;12.67;;;2.60;;
10098;SDS011;5089;42.656;23.374;2022-10-15T13:04:18;10.07;;;2.13;;
10098;SDS011;5089;42.656;23.374;2022-10-15T13:06:45;9.87;;;2.10;;
10098;SDS011;5089;42.656;23.374;2022-10-15T13:09:24;10.03;;;2.10;;
10098;SDS011;5089;42.656;23.374;2022-10-15T13:11:54;9.47;;;2.00;;
10098;SDS011;5089;42.656;23.374;2022-10-15T13:14:25;9.83;;;2.07;;
10098;SDS011;5089;42.656;23.374;2022-10-15T13:16:55;9.90;;;2.07;;
10098;SDS011;5089;42.656;23.374;2022-10-15T13:19:25;11.50;;;2.40;;
10098;SDS011;5089;42.656;23.374;2022-10-15T13:21:55;8.60;;;1.90;;
10098;SDS011;5089;42.656;23.374;2022-10-15T13:24:24;14.50;;;2.87;;
10098;SDS011;5089;42.656;23.374;2022-10-15T13:26:53;9.77;;;2.07;;
10098;SDS011;5089;42.656;23.374;2022-10-15T13:29:22;10.90;;;2.20;;
10098;SDS011;5089;42.656;23.374;2022-10-15T13:31:50;10.70;;;2.20;;
10098;SDS011;5089;42.656;23.374;2022-10-15T13:34:22;10.07;;;2.10;;
10098;SDS011;5089;42.656;23.374;2022-10-15T13:36:53;10.00;;;2.13;;
10098;SDS011;5089;42.656;23.374;2022-10-15T13:39:27;10.57;;;2.20;;
10098;SDS011;5089;42.656;23.374;2022-10-15T13:42:05;13.93;;;2.70;;
10098;SDS011;5089;42.656;23.374;2022-10-15T13:44:33;10.10;;;2.10;;
10098;SDS011;5089;42.656;23.374;2022-10-15T13:47:01;11.10;;;2.20;;
10098;SDS011;5089;42.656;23.374;2022-10-15T13:49:30;9.97;;;2.10;;
10098;SDS011;5089;42.656;23.374;2022-10-15T13:51:56;9.53;;;1.97;;
10098;SDS011;5089;42.656;23.374;2022-10-15T13:54:24;12.37;;;2.50;;
10098;SDS011;5089;42.656;23.374;2022-10-15T13:56:55;10.20;;;2.17;;
10098;SDS011;5089;42.656;23.374;2022-10-15T13:59:26;9.57;;;2.10;;
10098;SDS011;5089;42.656;23.374;2022-10-15T14:01:55;9.10;;;2.10;;
10098;SDS011;5089;42.656;23.374;2022-10-15T14:04:25;10.57;;;2.30;;
10098;SDS011;5089;42.656;23.374;2022-10-15T14:06:58;11.83;;;2.50;;
10098;SDS011;5089;42.656;23.374;2022-10-15T14:09:28;8.97;;;2.03;;
10098;SDS011;5089;42.656;23.374;2022-10-15T14:11:56;9.60;;;2.20;;
10098;SDS011;5089;42.656;23.374;2022-10-15T14:14:27;11.73;;;2.50;;
10098;SDS011;5089;42.656;23.374;2022-10-15T14:16:56;7.97;;;1.90;;
10098;SDS011;5089;42.656;23.374;2022-10-15T14:19:24;10.00;;;2.20;;
10098;SDS011;5089;42.656;23.374;2022-10-15T14:21:55;11.70;;;2.50;;
10098;SDS011;5089;42.656;23.374;2022-10-15T14:24:26;13.13;;;2.77;;
10098;SDS011;5089;42.656;23.374;2022-10-15T14:27:00;8.90;;;2.00;;
10098;SDS011;5089;42.656;23.374;2022-10-15T14:29:33;8.77;;;1.97;;
10098;SDS011;5089;42.656;23.374;2022-10-15T14:32:16;8.93;;;2.00;;
10098;SDS011;5089;42.656;23.374;2022-10-15T14:34:45;9.43;;;2.17;;
10098;SDS011;5089;42.656;23.374;2022-10-15T14:37:30;8.00;;;1.77;;
10098;SDS011;5089;42.656;23.374;2022-10-15T14:40:13;8.80;;;1.90;;
10098;SDS011;5089;42.656;23.374;2022-10-15T14:42:42;8.03;;;1.83;;
10098;SDS011;5089;42.656;23.374;2022-10-15T14:45:11;7.93;;;1.83;;
10098;SDS011;5089;42.656;23.374;2022-10-15T14:47:44;8.83;;;2.30;;
10098;SDS011;5089;42.656;23.374;2022-10-15T14:50:12;9.70;;;2.37;;
10098;SDS011;5089;42.656;23.374;2022-10-15T14:52:43;9.47;;;2.30;;
10098;SDS011;5089;42.656;23.374;2022-10-15T14:55:15;8.20;;;2.13;;
10098;SDS011;5089;42.656;23.374;2022-10-15T14:57:52;7.77;;;2.00;;
10098;SDS011;5089;42.656;23.374;2022-10-15T15:00:21;7.03;;;1.90;;
10098;SDS011;5089;42.656;23.374;2022-10-15T15:02:52;7.83;;;2.00;;
10098;SDS011;5089;42.656;23.374;2022-10-15T15:05:21;7.57;;;1.90;;
10098;SDS011;5089;42.656;23.374;2022-10-15T15:07:50;9.70;;;2.40;;
10098;SDS011;5089;42.656;23.374;2022-10-15T15:10:18;9.23;;;2.30;;
10098;SDS011;5089;42.656;23.374;2022-10-15T15:12:48;7.53;;;2.00;;
10098;SDS011;5089;42.656;23.374;2022-10-15T15:15:16;8.33;;;2.10;;
10098;SDS011;5089;42.656;23.374;2022-10-15T15:17:45;7.67;;;1.90;;
10098;SDS011;5089;42.656;23.374;2022-10-15T15:20:12;8.10;;;2.10;;
10098;SDS011;5089;42.656;23.374;2022-10-15T15:22:40;7.77;;;1.83;;
10098;SDS011;5089;42.656;23.374;2022-10-15T15:25:12;8.20;;;1.90;;
10098;SDS011;5089;42.656;23.374;2022-10-15T15:27:40;6.97;;;1.80;;
10098;SDS011;5089;42.656;23.374;2022-10-15T15:30:12;9.93;;;2.30;;
10098;SDS011;5089;42.656;23.374;2022-10-15T15:32:40;7.60;;;1.90;;
10098;SDS011;5089;42.656;23.374;2022-10-15T15:35:09;7.10;;;1.80;;
10098;SDS011;5089;42.656;23.374;2022-10-15T15:37:43;9.00;;;2.17;;
10098;SDS011;5089;42.656;23.374;2022-10-15T15:40:12;7.57;;;2.00;;
10098;SDS011;5089;42.656;23.374;2022-10-15T15:42:39;6.30;;;1.67;;
10098;SDS011;5089;42.656;23.374;2022-10-15T15:45:09;9.30;;;2.20;;
10098;SDS011;5089;42.656;23.374;2022-10-15T15:47:43;8.67;;;2.20;;
10098;SDS011;5089;42.656;23.374;2022-10-15T15:50:10;9.77;;;2.30;;
10098;SDS011;5089;42.656;23.374;2022-10-15T15:52:38;11.33;;;2.60;;
10098;SDS011;5089;42.656;23.374;2022-10-15T15:55:05;10.57;;;2.53;;
10098;SDS011;5089;42.656;23.374;2022-10-15T15:57:34;8.47;;;2.10;;
10098;SDS011;5089;42.656;23.374;2022-10-15T16:00:01;7.37;;;1.83;;
10098;SDS011;5089;42.656;23.374;2022-10-15T16:02:29;11.80;;;2.77;;
10098;SDS011;5089;42.656;23.374;2022-10-15T16:04:56;11.57;;;2.67;;
10098;SDS011;5089;42.656;23.374;2022-10-15T16:07:23;8.90;;;2.20;;
10098;SDS011;5089;42.656;23.374;2022-10-15T16:09:49;8.67;;;2.13;;
10098;SDS011;5089;42.656;23.374;2022-10-15T16:12:16;7.73;;;1.90;;
10098;SDS011;5089;42.656;23.374;2022-10-15T16:14:44;7.27;;;1.87;;
10098;SDS011;5089;42.656;23.374;2022-10-15T16:17:11;8.13;;;1.97;;
10098;SDS011;5089;42.656;23.374;2022-10-15T16:19:38;8.53;;;2.07;;
10098;SDS011;5089;42.656;23.374;2022-10-15T16:22:05;9.30;;;2.23;;
10098;SDS011;5089;42.656;23.374;2022-10-15T16:24:31;9.07;;;2.20;;
10098;SDS011;5089;42.656;23.374;2022-10-15T16:26:59;8.23;;;2.00;;
10098;SDS011;5089;42.656;23.374;2022-10-15T16:29:26;10.03;;;2.30;;
10098;SDS011;5089;42.656;23.374;2022-10-15T16:31:54;8.40;;;2.10;;
10098;SDS011;5089;42.656;23.374;2022-10-15T16:34:21;8.50;;;2.03;;
10098;SDS011;5089;42.656;23.374;2022-10-15T16:36:49;10.57;;;2.50;;
10098;SDS011;5089;42.656;23.374;2022-10-15T16:39:15;9.00;;;2.10;;
10098;SDS011;5089;42.656;23.374;2022-10-15T16:41:42;7.27;;;1.83;;
10098;SDS011;5089;42.656;23.374;2022-10-15T16:44:09;8.00;;;1.97;;
10098;SDS011;5089;42.656;23.374;2022-10-15T16:46:35;8.83;;;2.07;;
10098;SDS011;5089;42.656;23.374;2022-10-15T16:49:04;8.47;;;2.00;;
10098;SDS011;5089;42.656;23.374;2022-10-15T16:51:30;8.37;;;1.90;;
10098;SDS011;5089;42.656;23.374;2022-10-15T16:53:57;9.00;;;2.03;;
10098;SDS011;5089;42.656;23.374;2022-10-15T16:56:25;13.43;;;2.97;;
10098;SDS011;5089;42.656;23.374;2022-10-15T16:58:53;7.20;;;1.80;;
10098;SDS011;5089;42.656;23.374;2022-10-15T17:01:21;13.10;;;2.90;;
10098;SDS011;5089;42.656;23.374;2022-10-15T17:03:49;8.23;;;1.90;;
10098;SDS011;5089;42.656;23.374;2022-10-15T17:06:19;10.80;;;2.40;;
10098;SDS011;5089;42.656;23.374;2022-10-15T17:08:47;9.13;;;2.10;;
10098;SDS011;5089;42.656;23.374;2022-10-15T17:11:16;8.97;;;2.07;;
10098;SDS011;5089;42.656;23.374;2022-10-15T17:13:44;10.00;;;2.27;;
10098;SDS011;5089;42.656;23.374;2022-10-15T17:16:13;8.73;;;2.10;;
10098;SDS011;5089;42.656;23.374;2022-10-15T17:18:41;10.00;;;2.27;;
10098;SDS011;5089;42.656;23.374;2022-10-15T17:21:09;9.50;;;2.20;;
10098;SDS011;5089;42.656;23.374;2022-10-15T17:23:39;7.60;;;1.80;;
10098;SDS011;5089;42.656;23.374;2022-10-15T17:26:07;8.63;;;1.97;;
10098;SDS011;5089;42.656;23.374;2022-10-15T17:28:36;8.07;;;1.90;;
10098;SDS011;5089;42.656;23.374;2022-10-15T17:31:04;9.27;;;2.10;;
10098;SDS011;5089;42.656;23.374;2022-10-15T17:33:33;9.80;;;2.20;;
10098;SDS011;5089;42.656;23.374;2022-10-15T17:36:01;9.13;;;2.17;;
10098;SDS011;5089;42.656;23.374;2022-10-15T17:38:29;7.90;;;1.90;;
10098;SDS011;5089;42.656;23.374;2022-10-15T17:40:57;9.57;;;2.17;;
10098;SDS011;5089;42.656;23.374;2022-10-15T17:43:24;9.47;;;2.17;;
10098;SDS011;5089;42.656;23.374;2022-10-15T17:45:57;9.83;;;2.20;;
10098;SDS011;5089;42.656;23.374;2022-10-15T17:48:25;11.33;;;2.50;;
10098;SDS011;5089;42.656;23.374;2022-10-15T17:50:52;12.60;;;2.73;;
10098;SDS011;5089;42.656;23.374;2022-10-15T17:53:19;10.40;;;2.30;;
10098;SDS011;5089;42.656;23.374;2022-10-15T17:55:46;14.57;;;3.07;;
10098;SDS011;5089;42.656;23.374;2022-10-15T17:58:14;15.10;;;3.10;;
10098;SDS011;5089;42.656;23.374;2022-10-15T18:00:41;12.90;;;2.83;;
10098;SDS011;5089;42.656;23.374;2022-10-15T18:03:08;11.77;;;2.53;;
10098;SDS011;5089;42.656;23.374;2022-10-15T18:05:35;10.53;;;2.30;;
10098;SDS011;5089;42.656;23.374;2022-10-15T18:08:02;11.63;;;2.50;;
10098;SDS011;5089;42.656;23.374;2022-10-15T18:10:29;10.93;;;2.43;;
10098;SDS011;5089;42.656;23.374;2022-10-15T18:12:56;11.07;;;2.43;;
10098;SDS011;5089;42.656;23.374;2022-10-15T18:15:24;11.17;;;2.50;;
10098;SDS011;5089;42.656;23.374;2022-10-15T18:17:50;11.10;;;2.50;;
10098;SDS011;5089;42.656;23.374;2022-10-15T18:20:17;8.47;;;2.00;;
10098;SDS011;5089;42.656;23.374;2022-10-15T18:22:44;13.07;;;2.80;;
10098;SDS011;5089;42.656;23.374;2022-10-15T18:25:11;13.87;;;2.97;;
10098;SDS011;5089;42.656;23.374;2022-10-15T18:27:38;10.90;;;2.47;;
10098;SDS011;5089;42.656;23.374;2022-10-15T18:30:05;10.67;;;2.23;;
10098;SDS011;5089;42.656;23.374;2022-10-15T18:32:33;10.47;;;2.30;;
10098;SDS011;5089;42.656;23.374;2022-10-15T18:35:00;11.33;;;2.43;;
10098;SDS011;5089;42.656;23.374;2022-10-15T18:37:27;11.33;;;2.43;;
10098;SDS011;5089;42.656;23.374;2022-10-15T18:39:53;10.57;;;2.30;;
10098;SDS011;5089;42.656;23.374;2022-10-15T18:42:21;12.13;;;2.60;;
10098;SDS011;5089;42.656;23.374;2022-10-15T18:44:47;8.93;;;2.00;;
10098;SDS011;5089;42.656;23.374;2022-10-15T18:47:14;11.93;;;2.60;;
10098;SDS011;5089;42.656;23.374;2022-10-15T18:49:43;8.80;;;2.00;;
10098;SDS011;5089;42.656;23.374;2022-10-15T18:52:09;11.20;;;2.47;;
10098;SDS011;5089;42.656;23.374;2022-10-15T18:54:37;13.90;;;2.97;;
10098;SDS011;5089;42.656;23.374;2022-10-15T18:57:04;14.07;;;3.00;;
10098;SDS011;5089;42.656;23.374;2022-10-15T18:59:31;11.37;;;2.47;;
10098;SDS011;5089;42.656;23.374;2022-10-15T19:01:57;10.07;;;2.20;;
10098;SDS011;5089;42.656;23.374;2022-10-15T19:04:24;10.87;;;2.40;;
10098;SDS011;5089;42.656;23.374;2022-10-15T19:06:54;10.33;;;2.33;;
10098;SDS011;5089;42.656;23.374;2022-10-15T19:09:22;10.73;;;2.30;;
10098;SDS011;5089;42.656;23.374;2022-10-15T19:11:50;10.67;;;2.40;;
10098;SDS011;5089;42.656;23.374;2022-10-15T19:14:19;10.70;;;2.37;;
10098;SDS011;5089;42.656;23.374;2022-10-15T19:16:47;13.43;;;2.83;;
10098;SDS011;5089;42.656;23.374;2022-10-15T19:19:15;8.60;;;1.97;;
10098;SDS011;5089;42.656;23.374;2022-10-15T19:21:43;10.37;;;2.30;;
10098;SDS011;5089;42.656;23.374;2022-10-15T19:24:12;9.60;;;2.17;;
10098;SDS011;5089;42.656;23.374;2022-10-15T19:26:40;8.53;;;1.90;;
10098;SDS011;5089;42.656;23.374;2022-10-15T19:29:10;10.20;;;2.23;;
10098;SDS011;5089;42.656;23.374;2022-10-15T19:31:38;9.37;;;2.07;;
10098;SDS011;5089;42.656;23.374;2022-10-15T19:34:07;13.97;;;3.00;;
10098;SDS011;5089;42.656;23.374;2022-10-15T19:36:35;10.70;;;2.37;;
10098;SDS011;5089;42.656;23.374;2022-10-15T19:39:04;9.47;;;2.13;;
10098;SDS011;5089;42.656;23.374;2022-10-15T19:41:36;8.83;;;1.97;;
10098;SDS011;5089;42.656;23.374;2022-10-15T19:44:03;9.10;;;2.03;;
10098;SDS011;5089;42.656;23.374;2022-10-15T19:46:32;9.73;;;2.27;;
10098;SDS011;5089;42.656;23.374;2022-10-15T19:48:58;13.47;;;2.90;;
10098;SDS011;5089;42.656;23.374;2022-10-15T19:51:25;9.07;;;2.17;;
10098;SDS011;5089;42.656;23.374;2022-10-15T19:53:52;10.80;;;2.47;;
10098;SDS011;5089;42.656;23.374;2022-10-15T19:56:20;10.30;;;2.37;;
10098;SDS011;5089;42.656;23.374;2022-10-15T19:58:54;9.27;;;2.17;;
10098;SDS011;5089;42.656;23.374;2022-10-15T20:01:22;9.87;;;2.20;;
10098;SDS011;5089;42.656;23.374;2022-10-15T20:03:49;7.73;;;1.87;;
10098;SDS011;5089;42.656;23.374;2022-10-15T20:06:16;10.67;;;2.40;;
10098;SDS011;5089;42.656;23.374;2022-10-15T20:08:43;8.57;;;2.00;;
10098;SDS011;5089;42.656;23.374;2022-10-15T20:11:10;9.23;;;2.10;;
10098;SDS011;5089;42.656;23.374;2022-10-15T20:13:37;10.07;;;2.20;;
10098;SDS011;5089;42.656;23.374;2022-10-15T20:16:06;8.90;;;2.10;;
10098;SDS011;5089;42.656;23.374;2022-10-15T20:18:34;10.20;;;2.33;;
10098;SDS011;5089;42.656;23.374;2022-10-15T20:21:05;9.73;;;2.20;;
10098;SDS011;5089;42.656;23.374;2022-10-15T20:23:32;10.93;;;2.40;;
10098;SDS011;5089;42.656;23.374;2022-10-15T20:26:02;9.67;;;2.13;;
10098;SDS011;5089;42.656;23.374;2022-10-15T20:28:29;7.50;;;1.90;;
10098;SDS011;5089;42.656;23.374;2022-10-15T20:30:56;10.87;;;2.43;;
10098;SDS011;5089;42.656;23.374;2022-10-15T20:33:24;14.37;;;3.10;;
10098;SDS011;5089;42.656;23.374;2022-10-15T20:35:51;12.17;;;2.70;;
10098;SDS011;5089;42.656;23.374;2022-10-15T20:38:18;10.73;;;2.43;;
10098;SDS011;5089;42.656;23.374;2022-10-15T20:40:44;11.57;;;2.53;;
10098;SDS011;5089;42.656;23.374;2022-10-15T20:43:11;12.80;;;2.77;;
10098;SDS011;5089;42.656;23.374;2022-10-15T20:45:39;9.57;;;2.20;;
10098;SDS011;5089;42.656;23.374;2022-10-15T20:48:11;9.13;;;2.10;;
10098;SDS011;5089;42.656;23.374;2022-10-15T20:50:43;10.43;;;2.40;;
10098;SDS011;5089;42.656;23.374;2022-10-15T20:53:11;9.87;;;2.20;;
10098;SDS011;5089;42.656;23.374;2022-10-15T20:55:38;7.77;;;1.87;;
10098;SDS011;5089;42.656;23.374;2022-10-15T20:58:06;5.30;;;1.37;;
10098;SDS011;5089;42.656;23.374;2022-10-15T21:00:32;7.53;;;1.80;;
10098;SDS011;5089;42.656;23.374;2022-10-15T21:03:01;6.17;;;1.60;;
10098;SDS011;5089;42.656;23.374;2022-10-15T21:05:28;6.33;;;1.60;;
10098;SDS011;5089;42.656;23.374;2022-10-15T21:07:57;5.67;;;1.50;;
10098;SDS011;5089;42.656;23.374;2022-10-15T21:10:24;5.23;;;1.37;;
10098;SDS011;5089;42.656;23.374;2022-10-15T21:12:51;6.07;;;1.67;;
10098;SDS011;5089;42.656;23.374;2022-10-15T21:15:18;5.80;;;1.50;;
10098;SDS011;5089;42.656;23.374;2022-10-15T21:17:45;5.97;;;1.57;;
10098;SDS011;5089;42.656;23.374;2022-10-15T21:20:12;4.63;;;1.30;;
10098;SDS011;5089;42.656;23.374;2022-10-15T21:22:40;5.33;;;1.43;;
10098;SDS011;5089;42.656;23.374;2022-10-15T21:25:12;4.73;;;1.30;;
10098;SDS011;5089;42.656;23.374;2022-10-15T21:27:39;5.47;;;1.53;;
10098;SDS011;5089;42.656;23.374;2022-10-15T21:30:06;6.87;;;1.73;;
10098;SDS011;5089;42.656;23.374;2022-10-15T21:32:33;3.70;;;1.07;;
10098;SDS011;5089;42.656;23.374;2022-10-15T21:35:00;4.83;;;1.27;;
10098;SDS011;5089;42.656;23.374;2022-10-15T21:37:27;5.03;;;1.30;;
10098;SDS011;5089;42.656;23.374;2022-10-15T21:40:00;6.07;;;1.50;;
10098;SDS011;5089;42.656;23.374;2022-10-15T21:42:33;6.57;;;1.60;;